sim
Sign-in with your pilot id or email,
or register
Callsign
Passwort

Schedule Details

Flight Number: EWG7037
Departure: Cologne Bonn Airport (EDDK) at 18:15
Arrival: Hamburg Airport (EDDH) at 19:20
Route: Eurowings Passenger Schedule. Enter filed route here before submitting Pirep.

Weather Information
Getting current METAR information for EDDK 241350Z 27008KT 9999 FEW011 BKN015 02/M00 Q1000 R14L/190295 R06///99// R14R///99// NOSIG
Getting current METAR information for EDDH 241350Z 17005KT 9999 FEW011 BKN014 03/01 Q0997 TEMPO 4500 -RASN

Schedule Frequency

Route Map